sensor_id;sensor_type;location;lat;lon;timestamp;temperature;humidity
62862;DHT22;48953;53.110;5.592;2022-11-09T00:00:35;11.40;99.90
62862;DHT22;48953;53.110;5.592;2022-11-09T00:03:00;11.40;99.90
62862;DHT22;48953;53.110;5.592;2022-11-09T00:05:26;11.40;99.90
62862;DHT22;48953;53.110;5.592;2022-11-09T00:07:51;11.10;99.90
62862;DHT22;48953;53.110;5.592;2022-11-09T00:10:17;10.90;1.00
62862;DHT22;48953;53.110;5.592;2022-11-09T00:12:42;10.90;1.00
62862;DHT22;48953;53.110;5.592;2022-11-09T00:15:08;10.90;1.00
62862;DHT22;48953;53.110;5.592;2022-11-09T00:17:34;10.80;1.00
62862;DHT22;48953;53.110;5.592;2022-11-09T00:20:00;10.90;1.00
62862;DHT22;48953;53.110;5.592;2022-11-09T00:22:25;10.80;1.00
62862;DHT22;48953;53.110;5.592;2022-11-09T00:24:51;10.80;1.00
62862;DHT22;48953;53.110;5.592;2022-11-09T00:27:16;11.00;1.00
62862;DHT22;48953;53.110;5.592;2022-11-09T00:29:42;10.90;1.00
62862;DHT22;48953;53.110;5.592;2022-11-09T00:32:07;11.00;1.00
62862;DHT22;48953;53.110;5.592;2022-11-09T00:34:33;11.00;1.00
62862;DHT22;48953;53.110;5.592;2022-11-09T00:36:58;11.20;1.00
62862;DHT22;48953;53.110;5.592;2022-11-09T00:39:24;11.10;1.00
62862;DHT22;48953;53.110;5.592;2022-11-09T00:41:50;11.00;1.00
62862;DHT22;48953;53.110;5.592;2022-11-09T00:44:15;11.10;1.00
62862;DHT22;48953;53.110;5.592;2022-11-09T00:46:41;11.10;1.00
62862;DHT22;48953;53.110;5.592;2022-11-09T00:49:06;11.10;1.00
62862;DHT22;48953;53.110;5.592;2022-11-09T00:51:32;10.90;1.00
62862;DHT22;48953;53.110;5.592;2022-11-09T00:53:57;10.90;1.00
62862;DHT22;48953;53.110;5.592;2022-11-09T00:56:23;11.20;1.00
62862;DHT22;48953;53.110;5.592;2022-11-09T00:58:52;10.90;1.00
62862;DHT22;48953;53.110;5.592;2022-11-09T01:01:19;11.00;1.00
62862;DHT22;48953;53.110;5.592;2022-11-09T01:03:45;11.00;1.00
62862;DHT22;48953;53.110;5.592;2022-11-09T01:06:16;10.90;7.00
62862;DHT22;48953;53.110;5.592;2022-11-09T01:08:42;11.00;1.00
62862;DHT22;48953;53.110;5.592;2022-11-09T01:11:09;10.80;1.00
62862;DHT22;48953;53.110;5.592;2022-11-09T01:13:36;10.80;6.80
62862;DHT22;48953;53.110;5.592;2022-11-09T01:16:08;10.70;1.00
62862;DHT22;48953;53.110;5.592;2022-11-09T01:18:35;10.70;1.00
62862;DHT22;48953;53.110;5.592;2022-11-09T01:21:03;10.60;28.70
62862;DHT22;48953;53.110;5.592;2022-11-09T01:23:30;10.50;43.20
62862;DHT22;48953;53.110;5.592;2022-11-09T01:26:04;10.50;83.00
62862;DHT22;48953;53.110;5.592;2022-11-09T01:28:30;10.40;99.90
62862;DHT22;48953;53.110;5.592;2022-11-09T01:31:01;10.40;99.90
62862;DHT22;48953;53.110;5.592;2022-11-09T01:33:27;10.30;99.90
62862;DHT22;48953;53.110;5.592;2022-11-09T01:35:52;10.50;99.90
62862;DHT22;48953;53.110;5.592;2022-11-09T01:38:18;10.30;99.90
62862;DHT22;48953;53.110;5.592;2022-11-09T01:40:43;10.30;99.90
62862;DHT22;48953;53.110;5.592;2022-11-09T01:43:22;10.30;99.90
62862;DHT22;48953;53.110;5.592;2022-11-09T01:46:08;10.50;99.90
62862;DHT22;48953;53.110;5.592;2022-11-09T01:51:26;10.40;99.90
62862;DHT22;48953;53.110;5.592;2022-11-09T01:53:59;10.30;99.90
62862;DHT22;48953;53.110;5.592;2022-11-09T01:56:28;10.30;99.90
62862;DHT22;48953;53.110;5.592;2022-11-09T01:58:59;10.40;99.90
62862;DHT22;48953;53.110;5.592;2022-11-09T02:01:46;10.20;99.90
62862;DHT22;48953;53.110;5.592;2022-11-09T02:04:21;10.20;99.90
62862;DHT22;48953;53.110;5.592;2022-11-09T02:06:49;10.30;99.90
62862;DHT22;48953;53.110;5.592;2022-11-09T02:09:26;10.30;99.90
62862;DHT22;48953;53.110;5.592;2022-11-09T02:11:53;10.20;99.90
62862;DHT22;48953;53.110;5.592;2022-11-09T02:14:20;10.30;99.90
62862;DHT22;48953;53.110;5.592;2022-11-09T02:16:47;10.20;99.90
62862;DHT22;48953;53.110;5.592;2022-11-09T02:19:12;10.20;99.90
62862;DHT22;48953;53.110;5.592;2022-11-09T02:21:38;10.10;99.90
62862;DHT22;48953;53.110;5.592;2022-11-09T02:24:04;10.10;1.00
62862;DHT22;48953;53.110;5.592;2022-11-09T02:29:02;10.20;1.00
62862;DHT22;48953;53.110;5.592;2022-11-09T02:31:32;10.20;1.00
62862;DHT22;48953;53.110;5.592;2022-11-09T02:34:08;10.10;1.00
62862;DHT22;48953;53.110;5.592;2022-11-09T02:36:35;10.20;1.00
62862;DHT22;48953;53.110;5.592;2022-11-09T02:39:01;10.30;1.00
62862;DHT22;48953;53.110;5.592;2022-11-09T02:41:29;10.20;1.00
62862;DHT22;48953;53.110;5.592;2022-11-09T02:43:56;10.30;1.00
62862;DHT22;48953;53.110;5.592;2022-11-09T02:46:35;10.40;1.00
62862;DHT22;48953;53.110;5.592;2022-11-09T02:49:01;10.30;1.00
62862;DHT22;48953;53.110;5.592;2022-11-09T02:51:28;10.30;1.00
62862;DHT22;48953;53.110;5.592;2022-11-09T02:53:53;10.10;1.00
62862;DHT22;48953;53.110;5.592;2022-11-09T02:56:19;10.20;1.00
62862;DHT22;48953;53.110;5.592;2022-11-09T02:58:44;10.30;1.00
62862;DHT22;48953;53.110;5.592;2022-11-09T03:01:10;10.30;1.00
62862;DHT22;48953;53.110;5.592;2022-11-09T03:03:35;10.10;1.00
62862;DHT22;48953;53.110;5.592;2022-11-09T03:06:01;10.20;1.00
62862;DHT22;48953;53.110;5.592;2022-11-09T03:08:27;10.20;1.00
62862;DHT22;48953;53.110;5.592;2022-11-09T03:10:52;10.10;1.00
62862;DHT22;48953;53.110;5.592;2022-11-09T03:13:18;10.10;1.00
62862;DHT22;48953;53.110;5.592;2022-11-09T03:15:44;10.10;1.00
62862;DHT22;48953;53.110;5.592;2022-11-09T03:18:09;10.00;1.00
62862;DHT22;48953;53.110;5.592;2022-11-09T03:20:35;10.00;1.00
62862;DHT22;48953;53.110;5.592;2022-11-09T03:23:01;10.20;1.00
62862;DHT22;48953;53.110;5.592;2022-11-09T03:25:27;10.20;1.00
62862;DHT22;48953;53.110;5.592;2022-11-09T03:27:57;10.10;1.00
62862;DHT22;48953;53.110;5.592;2022-11-09T03:30:23;10.20;1.00
62862;DHT22;48953;53.110;5.592;2022-11-09T03:32:49;10.00;1.00
62862;DHT22;48953;53.110;5.592;2022-11-09T03:35:14;10.10;1.00
62862;DHT22;48953;53.110;5.592;2022-11-09T03:37:40;10.00;1.00
62862;DHT22;48953;53.110;5.592;2022-11-09T03:40:06;9.90;1.00
62862;DHT22;48953;53.110;5.592;2022-11-09T03:42:31;10.00;1.00
62862;DHT22;48953;53.110;5.592;2022-11-09T03:44:57;9.90;99.90
62862;DHT22;48953;53.110;5.592;2022-11-09T03:47:23;9.90;99.90
62862;DHT22;48953;53.110;5.592;2022-11-09T03:49:48;10.00;1.00
62862;DHT22;48953;53.110;5.592;2022-11-09T03:52:14;10.00;99.90
62862;DHT22;48953;53.110;5.592;2022-11-09T03:54:39;10.00;99.90
62862;DHT22;48953;53.110;5.592;2022-11-09T03:57:05;10.10;99.90
62862;DHT22;48953;53.110;5.592;2022-11-09T03:59:30;10.20;99.90
62862;DHT22;48953;53.110;5.592;2022-11-09T04:01:56;10.10;99.90
62862;DHT22;48953;53.110;5.592;2022-11-09T04:04:22;10.40;99.90
62862;DHT22;48953;53.110;5.592;2022-11-09T04:06:47;10.50;99.90
62862;DHT22;48953;53.110;5.592;2022-11-09T04:09:13;10.50;99.90
62862;DHT22;48953;53.110;5.592;2022-11-09T04:11:38;10.50;99.90
62862;DHT22;48953;53.110;5.592;2022-11-09T04:14:04;10.50;99.90
62862;DHT22;48953;53.110;5.592;2022-11-09T04:16:29;10.50;99.90
62862;DHT22;48953;53.110;5.592;2022-11-09T04:18:55;10.50;99.90
62862;DHT22;48953;53.110;5.592;2022-11-09T04:21:20;10.40;99.90
62862;DHT22;48953;53.110;5.592;2022-11-09T04:23:47;10.30;99.90
62862;DHT22;48953;53.110;5.592;2022-11-09T04:26:13;10.20;99.90
62862;DHT22;48953;53.110;5.592;2022-11-09T04:28:39;10.30;99.90
62862;DHT22;48953;53.110;5.592;2022-11-09T04:31:05;10.30;99.90
62862;DHT22;48953;53.110;5.592;2022-11-09T04:33:30;10.30;99.90
62862;DHT22;48953;53.110;5.592;2022-11-09T04:36:01;10.30;99.90
62862;DHT22;48953;53.110;5.592;2022-11-09T04:38:27;10.30;99.90
62862;DHT22;48953;53.110;5.592;2022-11-09T04:40:53;10.50;99.90
62862;DHT22;48953;53.110;5.592;2022-11-09T04:43:18;10.30;99.90
62862;DHT22;48953;53.110;5.592;2022-11-09T04:45:44;10.40;99.90
62862;DHT22;48953;53.110;5.592;2022-11-09T04:48:11;10.40;99.90
62862;DHT22;48953;53.110;5.592;2022-11-09T04:50:36;10.40;99.90
62862;DHT22;48953;53.110;5.592;2022-11-09T04:53:11;10.40;99.90
62862;DHT22;48953;53.110;5.592;2022-11-09T04:55:37;10.40;99.90
62862;DHT22;48953;53.110;5.592;2022-11-09T04:58:03;10.50;99.90
62862;DHT22;48953;53.110;5.592;2022-11-09T05:00:28;10.40;99.90
62862;DHT22;48953;53.110;5.592;2022-11-09T05:02:54;10.40;99.90
62862;DHT22;48953;53.110;5.592;2022-11-09T05:05:20;10.30;99.90
62862;DHT22;48953;53.110;5.592;2022-11-09T05:07:45;10.30;99.90
62862;DHT22;48953;53.110;5.592;2022-11-09T05:10:11;10.20;99.90
62862;DHT22;48953;53.110;5.592;2022-11-09T05:12:36;10.20;99.90
62862;DHT22;48953;53.110;5.592;2022-11-09T05:15:02;10.30;99.90
62862;DHT22;48953;53.110;5.592;2022-11-09T05:17:28;10.10;99.90
62862;DHT22;48953;53.110;5.592;2022-11-09T05:19:53;10.00;99.90
62862;DHT22;48953;53.110;5.592;2022-11-09T05:22:19;9.90;99.90
62862;DHT22;48953;53.110;5.592;2022-11-09T05:25:03;10.10;99.90
62862;DHT22;48953;53.110;5.592;2022-11-09T05:27:29;9.90;99.90
62862;DHT22;48953;53.110;5.592;2022-11-09T05:29:54;9.90;99.90
62862;DHT22;48953;53.110;5.592;2022-11-09T05:32:20;9.80;99.90
62862;DHT22;48953;53.110;5.592;2022-11-09T05:34:45;9.90;99.90
62862;DHT22;48953;53.110;5.592;2022-11-09T05:37:11;9.80;99.90
62862;DHT22;48953;53.110;5.592;2022-11-09T05:39:37;9.90;99.90
62862;DHT22;48953;53.110;5.592;2022-11-09T05:42:02;9.80;99.90
62862;DHT22;48953;53.110;5.592;2022-11-09T05:44:28;9.70;99.90
62862;DHT22;48953;53.110;5.592;2022-11-09T05:46:53;9.90;99.90
62862;DHT22;48953;53.110;5.592;2022-11-09T05:49:19;9.70;99.90
62862;DHT22;48953;53.110;5.592;2022-11-09T05:51:45;9.80;99.90
62862;DHT22;48953;53.110;5.592;2022-11-09T05:54:10;9.70;99.90
62862;DHT22;48953;53.110;5.592;2022-11-09T05:56:36;9.60;99.90
62862;DHT22;48953;53.110;5.592;2022-11-09T05:59:01;9.70;1.00
62862;DHT22;48953;53.110;5.592;2022-11-09T06:01:27;9.60;1.00
62862;DHT22;48953;53.110;5.592;2022-11-09T06:03:53;9.60;1.00
62862;DHT22;48953;53.110;5.592;2022-11-09T06:06:18;9.60;1.00
62862;DHT22;48953;53.110;5.592;2022-11-09T06:08:44;9.50;1.00
62862;DHT22;48953;53.110;5.592;2022-11-09T06:11:11;9.60;1.00
62862;DHT22;48953;53.110;5.592;2022-11-09T06:13:37;9.60;1.00
62862;DHT22;48953;53.110;5.592;2022-11-09T06:16:04;9.60;1.00
62862;DHT22;48953;53.110;5.592;2022-11-09T06:18:31;9.50;1.00
62862;DHT22;48953;53.110;5.592;2022-11-09T06:21:00;9.70;1.00
62862;DHT22;48953;53.110;5.592;2022-11-09T06:23:26;9.50;1.00
62862;DHT22;48953;53.110;5.592;2022-11-09T06:26:02;9.80;1.00
62862;DHT22;48953;53.110;5.592;2022-11-09T06:28:30;9.60;1.00
62862;DHT22;48953;53.110;5.592;2022-11-09T06:30:58;9.50;1.00
62862;DHT22;48953;53.110;5.592;2022-11-09T06:33:24;9.50;1.00
62862;DHT22;48953;53.110;5.592;2022-11-09T06:35:50;9.40;1.00
62862;DHT22;48953;53.110;5.592;2022-11-09T06:38:15;9.40;1.00
62862;DHT22;48953;53.110;5.592;2022-11-09T06:40:41;9.40;1.00
62862;DHT22;48953;53.110;5.592;2022-11-09T06:43:06;9.50;1.00
62862;DHT22;48953;53.110;5.592;2022-11-09T06:45:32;9.30;1.00
62862;DHT22;48953;53.110;5.592;2022-11-09T06:48:00;9.40;1.00
62862;DHT22;48953;53.110;5.592;2022-11-09T06:50:28;9.40;1.00
62862;DHT22;48953;53.110;5.592;2022-11-09T06:53:02;9.30;1.00
62862;DHT22;48953;53.110;5.592;2022-11-09T06:55:29;9.20;99.90
62862;DHT22;48953;53.110;5.592;2022-11-09T06:57:55;9.30;99.90
62862;DHT22;48953;53.110;5.592;2022-11-09T07:00:22;9.30;1.00
62862;DHT22;48953;53.110;5.592;2022-11-09T07:02:47;9.40;1.00
62862;DHT22;48953;53.110;5.592;2022-11-09T07:05:13;9.30;1.00
62862;DHT22;48953;53.110;5.592;2022-11-09T07:07:38;9.30;1.00
62862;DHT22;48953;53.110;5.592;2022-11-09T07:10:04;9.40;1.00
62862;DHT22;48953;53.110;5.592;2022-11-09T07:12:30;9.60;1.00
62862;DHT22;48953;53.110;5.592;2022-11-09T07:14:57;9.60;1.00
62862;DHT22;48953;53.110;5.592;2022-11-09T07:17:23;9.70;1.00
62862;DHT22;48953;53.110;5.592;2022-11-09T07:19:48;9.70;1.00
62862;DHT22;48953;53.110;5.592;2022-11-09T07:22:14;9.80;1.00
62862;DHT22;48953;53.110;5.592;2022-11-09T07:24:39;9.90;1.00
62862;DHT22;48953;53.110;5.592;2022-11-09T07:27:05;10.00;99.90
62862;DHT22;48953;53.110;5.592;2022-11-09T07:29:30;10.10;99.90
62862;DHT22;48953;53.110;5.592;2022-11-09T07:31:56;10.20;99.90
62862;DHT22;48953;53.110;5.592;2022-11-09T07:34:21;10.80;99.90
62862;DHT22;48953;53.110;5.592;2022-11-09T07:36:47;10.60;99.90
62862;DHT22;48953;53.110;5.592;2022-11-09T07:39:13;10.60;99.90
62862;DHT22;48953;53.110;5.592;2022-11-09T07:41:38;10.70;66.70
62862;DHT22;48953;53.110;5.592;2022-11-09T07:44:04;11.40;1.00
62862;DHT22;48953;53.110;5.592;2022-11-09T07:46:29;11.60;99.90
62862;DHT22;48953;53.110;5.592;2022-11-09T07:48:55;12.00;99.90
62862;DHT22;48953;53.110;5.592;2022-11-09T07:51:21;11.90;99.90
62862;DHT22;48953;53.110;5.592;2022-11-09T07:53:46;12.60;99.90
62862;DHT22;48953;53.110;5.592;2022-11-09T07:56:12;13.00;99.90
62862;DHT22;48953;53.110;5.592;2022-11-09T07:58:38;13.00;99.90
62862;DHT22;48953;53.110;5.592;2022-11-09T08:01:08;13.80;99.90
62862;DHT22;48953;53.110;5.592;2022-11-09T08:03:34;16.20;15.90
62862;DHT22;48953;53.110;5.592;2022-11-09T08:06:00;18.00;1.00
62862;DHT22;48953;53.110;5.592;2022-11-09T08:08:26;18.60;1.00
62862;DHT22;48953;53.110;5.592;2022-11-09T08:10:51;18.70;1.00
62862;DHT22;48953;53.110;5.592;2022-11-09T08:13:18;16.60;1.00
62862;DHT22;48953;53.110;5.592;2022-11-09T08:15:44;15.00;1.00
62862;DHT22;48953;53.110;5.592;2022-11-09T08:18:16;14.30;1.00
62862;DHT22;48953;53.110;5.592;2022-11-09T08:20:42;14.00;1.00
62862;DHT22;48953;53.110;5.592;2022-11-09T08:23:11;13.90;1.00
62862;DHT22;48953;53.110;5.592;2022-11-09T08:25:36;14.90;1.00
62862;DHT22;48953;53.110;5.592;2022-11-09T08:28:02;16.00;1.00
62862;DHT22;48953;53.110;5.592;2022-11-09T08:30:28;19.20;1.00
62862;DHT22;48953;53.110;5.592;2022-11-09T08:32:54;20.50;1.00
62862;DHT22;48953;53.110;5.592;2022-11-09T08:35:22;21.50;1.00
62862;DHT22;48953;53.110;5.592;2022-11-09T08:37:49;20.50;1.00
62862;DHT22;48953;53.110;5.592;2022-11-09T08:40:18;18.90;1.00
62862;DHT22;48953;53.110;5.592;2022-11-09T08:42:44;17.30;1.00
62862;DHT22;48953;53.110;5.592;2022-11-09T08:45:10;16.10;1.00
62862;DHT22;48953;53.110;5.592;2022-11-09T08:47:36;15.40;1.00
62862;DHT22;48953;53.110;5.592;2022-11-09T08:50:03;14.80;1.00
62862;DHT22;48953;53.110;5.592;2022-11-09T08:52:29;14.60;1.00
62862;DHT22;48953;53.110;5.592;2022-11-09T08:54:55;14.40;1.00
62862;DHT22;48953;53.110;5.592;2022-11-09T08:57:22;14.40;1.00
62862;DHT22;48953;53.110;5.592;2022-11-09T08:59:48;14.70;1.00
62862;DHT22;48953;53.110;5.592;2022-11-09T09:02:13;15.30;1.00
62862;DHT22;48953;53.110;5.592;2022-11-09T09:04:39;15.20;1.00
62862;DHT22;48953;53.110;5.592;2022-11-09T09:07:05;15.10;1.00
62862;DHT22;48953;53.110;5.592;2022-11-09T09:09:31;15.00;1.00
62862;DHT22;48953;53.110;5.592;2022-11-09T09:11:57;14.70;1.00
62862;DHT22;48953;53.110;5.592;2022-11-09T09:14:23;14.50;1.00
62862;DHT22;48953;53.110;5.592;2022-11-09T09:16:49;14.60;1.00
62862;DHT22;48953;53.110;5.592;2022-11-09T09:19:15;14.40;1.00
62862;DHT22;48953;53.110;5.592;2022-11-09T09:21:40;14.60;1.00
62862;DHT22;48953;53.110;5.592;2022-11-09T09:24:06;14.80;1.00
62862;DHT22;48953;53.110;5.592;2022-11-09T09:26:32;15.00;1.00
62862;DHT22;48953;53.110;5.592;2022-11-09T09:28:57;15.00;1.00
62862;DHT22;48953;53.110;5.592;2022-11-09T09:31:23;14.90;1.00
62862;DHT22;48953;53.110;5.592;2022-11-09T09:33:49;14.80;1.00
62862;DHT22;48953;53.110;5.592;2022-11-09T09:36:19;14.70;1.00
62862;DHT22;48953;53.110;5.592;2022-11-09T09:38:46;14.30;1.00
62862;DHT22;48953;53.110;5.592;2022-11-09T09:41:34;14.20;1.00
62862;DHT22;48953;53.110;5.592;2022-11-09T09:47:04;14.20;1.00
62862;DHT22;48953;53.110;5.592;2022-11-09T09:49:34;14.60;1.00
62862;DHT22;48953;53.110;5.592;2022-11-09T09:52:14;14.80;1.00
62862;DHT22;48953;53.110;5.592;2022-11-09T09:54:42;15.00;1.00
62862;DHT22;48953;53.110;5.592;2022-11-09T09:57:18;15.40;1.00
62862;DHT22;48953;53.110;5.592;2022-11-09T09:59:48;15.80;1.00
62862;DHT22;48953;53.110;5.592;2022-11-09T10:02:22;15.80;1.00
62862;DHT22;48953;53.110;5.592;2022-11-09T10:04:49;15.60;1.00
62862;DHT22;48953;53.110;5.592;2022-11-09T10:10:42;15.00;1.00
62862;DHT22;48953;53.110;5.592;2022-11-09T10:16:11;14.80;1.00
62862;DHT22;48953;53.110;5.592;2022-11-09T10:21:34;14.50;1.00
62862;DHT22;48953;53.110;5.592;2022-11-09T10:29:45;15.00;1.00
62862;DHT22;48953;53.110;5.592;2022-11-09T10:35:02;15.10;1.00
62862;DHT22;48953;53.110;5.592;2022-11-09T10:43:10;15.40;1.00
62862;DHT22;48953;53.110;5.592;2022-11-09T10:45:41;15.60;1.00
62862;DHT22;48953;53.110;5.592;2022-11-09T10:48:08;15.80;1.00
62862;DHT22;48953;53.110;5.592;2022-11-09T10:50:49;15.70;1.00
62862;DHT22;48953;53.110;5.592;2022-11-09T10:53:24;15.50;1.00
62862;DHT22;48953;53.110;5.592;2022-11-09T10:56:11;15.50;1.00
62862;DHT22;48953;53.110;5.592;2022-11-09T11:01:05;15.30;1.00
62862;DHT22;48953;53.110;5.592;2022-11-09T11:03:36;15.30;1.00
62862;DHT22;48953;53.110;5.592;2022-11-09T11:08:36;15.20;1.00
62862;DHT22;48953;53.110;5.592;2022-11-09T11:11:05;15.20;1.00
62862;DHT22;48953;53.110;5.592;2022-11-09T11:13:31;15.00;1.00
62862;DHT22;48953;53.110;5.592;2022-11-09T11:15:57;15.00;1.00
62862;DHT22;48953;53.110;5.592;2022-11-09T11:18:25;14.60;1.00
62862;DHT22;48953;53.110;5.592;2022-11-09T11:21:05;14.40;1.00
62862;DHT22;48953;53.110;5.592;2022-11-09T11:23:31;14.30;1.00
62862;DHT22;48953;53.110;5.592;2022-11-09T11:28:52;14.00;19.70
62862;DHT22;48953;53.110;5.592;2022-11-09T11:31:20;13.70;30.70
62862;DHT22;48953;53.110;5.592;2022-11-09T11:33:47;13.70;41.50
62862;DHT22;48953;53.110;5.592;2022-11-09T11:39:32;13.40;70.70
62862;DHT22;48953;53.110;5.592;2022-11-09T11:42:22;13.30;83.80
62862;DHT22;48953;53.110;5.592;2022-11-09T11:56:13;12.70;99.90
62862;DHT22;48953;53.110;5.592;2022-11-09T12:23:47;12.10;99.90
62862;DHT22;48953;53.110;5.592;2022-11-09T12:26:22;12.20;99.90
62862;DHT22;48953;53.110;5.592;2022-11-09T12:30:15;12.30;99.90
62862;DHT22;48953;53.110;5.592;2022-11-09T12:32:16;12.40;99.90
62862;DHT22;48953;53.110;5.592;2022-11-09T12:37:28;12.40;99.90
62862;DHT22;48953;53.110;5.592;2022-11-09T12:40:04;12.40;99.90
62862;DHT22;48953;53.110;5.592;2022-11-09T12:47:39;12.60;99.90
62862;DHT22;48953;53.110;5.592;2022-11-09T12:50:14;12.70;99.90
62862;DHT22;48953;53.110;5.592;2022-11-09T12:52:41;12.80;99.90
62862;DHT22;48953;53.110;5.592;2022-11-09T12:55:13;12.60;99.90
62862;DHT22;48953;53.110;5.592;2022-11-09T12:57:44;12.70;99.90
62862;DHT22;48953;53.110;5.592;2022-11-09T13:03:06;12.60;99.90
62862;DHT22;48953;53.110;5.592;2022-11-09T13:05:39;12.70;99.90
62862;DHT22;48953;53.110;5.592;2022-11-09T13:08:07;12.70;99.90
62862;DHT22;48953;53.110;5.592;2022-11-09T13:10:40;12.60;99.90
62862;DHT22;48953;53.110;5.592;2022-11-09T13:16:09;12.60;99.90
62862;DHT22;48953;53.110;5.592;2022-11-09T13:23:49;12.50;99.90
62862;DHT22;48953;53.110;5.592;2022-11-09T13:35:00;12.10;99.90
62862;DHT22;48953;53.110;5.592;2022-11-09T13:37:35;12.10;99.90
62862;DHT22;48953;53.110;5.592;2022-11-09T13:43:05;12.00;99.90
62862;DHT22;48953;53.110;5.592;2022-11-09T13:45:54;12.10;99.90
62862;DHT22;48953;53.110;5.592;2022-11-09T13:50:58;12.20;99.90
62862;DHT22;48953;53.110;5.592;2022-11-09T13:58:46;13.00;99.90
62862;DHT22;48953;53.110;5.592;2022-11-09T14:01:26;13.00;99.90
62862;DHT22;48953;53.110;5.592;2022-11-09T14:03:52;12.70;99.90
62862;DHT22;48953;53.110;5.592;2022-11-09T14:06:18;12.60;99.90
62862;DHT22;48953;53.110;5.592;2022-11-09T14:08:43;12.80;99.90
62862;DHT22;48953;53.110;5.592;2022-11-09T14:17:14;12.50;99.90
62862;DHT22;48953;53.110;5.592;2022-11-09T14:19:45;12.50;99.90
62862;DHT22;48953;53.110;5.592;2022-11-09T14:22:16;12.40;99.90
62862;DHT22;48953;53.110;5.592;2022-11-09T14:24:43;12.30;99.90
62862;DHT22;48953;53.110;5.592;2022-11-09T14:29:37;12.10;99.90
62862;DHT22;48953;53.110;5.592;2022-11-09T14:32:31;12.20;99.90
62862;DHT22;48953;53.110;5.592;2022-11-09T14:35:32;12.30;99.90
62862;DHT22;48953;53.110;5.592;2022-11-09T14:38:08;12.10;99.90
62862;DHT22;48953;53.110;5.592;2022-11-09T14:40:43;12.00;99.90
62862;DHT22;48953;53.110;5.592;2022-11-09T14:45:49;11.90;99.90
62862;DHT22;48953;53.110;5.592;2022-11-09T14:48:16;12.00;99.90
62862;DHT22;48953;53.110;5.592;2022-11-09T14:50:42;12.00;99.90
62862;DHT22;48953;53.110;5.592;2022-11-09T14:53:45;12.10;99.90
62862;DHT22;48953;53.110;5.592;2022-11-09T14:56:15;12.00;99.90
62862;DHT22;48953;53.110;5.592;2022-11-09T14:58:42;11.90;99.90
62862;DHT22;48953;53.110;5.592;2022-11-09T15:04:09;12.00;99.90
62862;DHT22;48953;53.110;5.592;2022-11-09T15:06:47;11.90;99.90
62862;DHT22;48953;53.110;5.592;2022-11-09T15:09:19;11.80;99.90
62862;DHT22;48953;53.110;5.592;2022-11-09T15:11:46;11.70;99.90
62862;DHT22;48953;53.110;5.592;2022-11-09T15:16:45;11.90;99.90
62862;DHT22;48953;53.110;5.592;2022-11-09T15:19:37;11.80;99.90
62862;DHT22;48953;53.110;5.592;2022-11-09T15:22:03;11.90;99.90
62862;DHT22;48953;53.110;5.592;2022-11-09T15:24:44;11.80;99.90
62862;DHT22;48953;53.110;5.592;2022-11-09T15:27:31;11.60;99.90
62862;DHT22;48953;53.110;5.592;2022-11-09T15:29:57;11.40;99.90
62862;DHT22;48953;53.110;5.592;2022-11-09T15:32:23;11.30;99.90
62862;DHT22;48953;53.110;5.592;2022-11-09T15:34:57;11.20;99.90
62862;DHT22;48953;53.110;5.592;2022-11-09T15:40:08;11.30;99.90
62862;DHT22;48953;53.110;5.592;2022-11-09T15:42:34;11.40;99.90
62862;DHT22;48953;53.110;5.592;2022-11-09T15:45:00;11.40;99.90
62862;DHT22;48953;53.110;5.592;2022-11-09T15:47:32;11.30;99.90
62862;DHT22;48953;53.110;5.592;2022-11-09T15:50:00;11.10;99.90
62862;DHT22;48953;53.110;5.592;2022-11-09T15:52:27;11.10;99.90
62862;DHT22;48953;53.110;5.592;2022-11-09T15:54:52;11.00;99.90
62862;DHT22;48953;53.110;5.592;2022-11-09T15:57:18;11.00;99.90
62862;DHT22;48953;53.110;5.592;2022-11-09T15:59:47;11.10;99.90
62862;DHT22;48953;53.110;5.592;2022-11-09T16:02:13;11.20;99.90
62862;DHT22;48953;53.110;5.592;2022-11-09T16:04:39;11.10;99.90
62862;DHT22;48953;53.110;5.592;2022-11-09T16:07:06;11.20;99.90
62862;DHT22;48953;53.110;5.592;2022-11-09T16:09:32;11.30;99.90
62862;DHT22;48953;53.110;5.592;2022-11-09T16:11:57;11.20;99.90
62862;DHT22;48953;53.110;5.592;2022-11-09T16:14:23;11.30;99.90
62862;DHT22;48953;53.110;5.592;2022-11-09T16:16:49;11.30;99.90
62862;DHT22;48953;53.110;5.592;2022-11-09T16:19:15;11.20;99.90
62862;DHT22;48953;53.110;5.592;2022-11-09T16:21:41;11.20;99.90
62862;DHT22;48953;53.110;5.592;2022-11-09T16:24:07;11.10;99.90
62862;DHT22;48953;53.110;5.592;2022-11-09T16:26:33;11.10;99.90
62862;DHT22;48953;53.110;5.592;2022-11-09T16:28:58;11.00;99.90
62862;DHT22;48953;53.110;5.592;2022-11-09T16:31:24;10.90;1.00
62862;DHT22;48953;53.110;5.592;2022-11-09T16:34:00;11.10;99.90
62862;DHT22;48953;53.110;5.592;2022-11-09T16:36:25;11.20;99.90
62862;DHT22;48953;53.110;5.592;2022-11-09T16:38:53;11.30;99.90
62862;DHT22;48953;53.110;5.592;2022-11-09T16:41:19;11.10;99.90
62862;DHT22;48953;53.110;5.592;2022-11-09T16:43:48;11.00;99.90
62862;DHT22;48953;53.110;5.592;2022-11-09T16:46:21;10.90;99.90
62862;DHT22;48953;53.110;5.592;2022-11-09T16:48:47;10.90;99.90
62862;DHT22;48953;53.110;5.592;2022-11-09T16:51:13;10.60;99.90
62862;DHT22;48953;53.110;5.592;2022-11-09T16:53:38;10.60;99.90
62862;DHT22;48953;53.110;5.592;2022-11-09T16:56:04;10.40;99.90
62862;DHT22;48953;53.110;5.592;2022-11-09T16:58:30;10.20;99.90
62862;DHT22;48953;53.110;5.592;2022-11-09T17:00:55;10.20;99.90
62862;DHT22;48953;53.110;5.592;2022-11-09T17:03:21;10.10;99.90
62862;DHT22;48953;53.110;5.592;2022-11-09T17:05:47;10.10;99.90
62862;DHT22;48953;53.110;5.592;2022-11-09T17:08:13;10.00;1.00
62862;DHT22;48953;53.110;5.592;2022-11-09T17:10:44;9.90;1.00
62862;DHT22;48953;53.110;5.592;2022-11-09T17:13:11;10.00;1.00
62862;DHT22;48953;53.110;5.592;2022-11-09T17:15:46;10.00;1.00
62862;DHT22;48953;53.110;5.592;2022-11-09T17:18:12;9.90;1.00
62862;DHT22;48953;53.110;5.592;2022-11-09T17:20:46;9.80;1.00
62862;DHT22;48953;53.110;5.592;2022-11-09T17:23:13;9.80;1.00
62862;DHT22;48953;53.110;5.592;2022-11-09T17:25:39;9.70;1.00
62862;DHT22;48953;53.110;5.592;2022-11-09T17:28:06;9.70;1.00
62862;DHT22;48953;53.110;5.592;2022-11-09T17:30:32;9.70;1.00
62862;DHT22;48953;53.110;5.592;2022-11-09T17:32:58;9.80;1.00
62862;DHT22;48953;53.110;5.592;2022-11-09T17:35:24;9.90;1.00
62862;DHT22;48953;53.110;5.592;2022-11-09T17:37:49;9.90;1.00
62862;DHT22;48953;53.110;5.592;2022-11-09T17:40:15;9.90;1.00
62862;DHT22;48953;53.110;5.592;2022-11-09T17:42:44;9.90;1.00
62862;DHT22;48953;53.110;5.592;2022-11-09T17:45:09;9.90;1.00
62862;DHT22;48953;53.110;5.592;2022-11-09T17:47:35;9.80;1.00
62862;DHT22;48953;53.110;5.592;2022-11-09T17:50:01;9.90;1.00
62862;DHT22;48953;53.110;5.592;2022-11-09T17:52:26;9.80;1.00
62862;DHT22;48953;53.110;5.592;2022-11-09T17:54:52;9.80;1.00
62862;DHT22;48953;53.110;5.592;2022-11-09T17:57:17;9.60;1.00
62862;DHT22;48953;53.110;5.592;2022-11-09T17:59:43;9.60;30.90
62862;DHT22;48953;53.110;5.592;2022-11-09T18:02:10;9.50;1.00
62862;DHT22;48953;53.110;5.592;2022-11-09T18:04:36;9.40;29.00